createdAt,value
2018-08-04T00:00:29.621Z,74.33
2018-08-04T00:02:58.818Z,73.76
2018-08-04T00:05:29.116Z,74.51
2018-08-04T00:07:58.415Z,74.63
2018-08-04T00:10:27.770Z,74.93
2018-08-04T00:12:58.274Z,74.52
2018-08-04T00:15:27.621Z,74.87
2018-08-04T00:17:56.945Z,74.95
2018-08-04T00:20:26.428Z,74.60
2018-08-04T00:22:55.768Z,74.69
2018-08-04T00:25:25.036Z,74.65
2018-08-04T00:27:54.598Z,74.66
2018-08-04T00:30:24.068Z,75.01
2018-08-04T00:32:53.471Z,74.49
2018-08-04T00:35:24.214Z,75.26
2018-08-04T00:37:53.463Z,76.34
2018-08-04T00:40:23.042Z,75.03
2018-08-04T00:42:53.185Z,75.33
2018-08-04T00:45:22.592Z,75.87
2018-08-04T00:47:52.201Z,76.65
2018-08-04T00:50:22.547Z,76.58
2018-08-04T00:52:52.032Z,76.75
2018-08-04T00:55:21.488Z,77.06
2018-08-04T00:57:51.019Z,77.05
2018-08-04T01:00:20.478Z,77.44
2018-08-04T01:02:49.928Z,77.22
2018-08-04T01:05:19.588Z,76.83
2018-08-04T01:07:48.917Z,77.95
2018-08-04T01:10:18.279Z,78.00
2018-08-04T01:12:47.636Z,77.59
2018-08-04T01:15:17.369Z,78.36
2018-08-04T01:17:47.420Z,77.92
2018-08-04T01:20:17.029Z,78.14
2018-08-04T01:22:46.430Z,79.14
2018-08-04T01:25:15.761Z,79.73
2018-08-04T01:27:45.235Z,79.81
2018-08-04T01:30:14.486Z,79.94
2018-08-04T01:32:43.769Z,80.14
2018-08-04T01:35:12.978Z,80.00
2018-08-04T01:37:42.208Z,79.79
2018-08-04T01:40:11.990Z,79.94
2018-08-04T01:42:41.224Z,80.06
2018-08-04T01:45:10.520Z,81.03
2018-08-04T01:47:39.840Z,80.93
2018-08-04T01:50:09.105Z,80.82
2018-08-04T01:52:38.320Z,80.52
2018-08-04T01:55:07.976Z,80.94
2018-08-04T01:57:37.148Z,80.61
2018-08-04T02:00:08.115Z,81.11
2018-08-04T02:02:37.521Z,82.04
2018-08-04T02:05:06.970Z,80.65
2018-08-04T02:07:36.168Z,81.19
2018-08-04T02:10:05.458Z,82.60
2018-08-04T02:12:34.689Z,82.29
2018-08-04T02:15:03.887Z,82.31
2018-08-04T02:17:33.808Z,82.19
2018-08-04T02:20:03.050Z,83.39
2018-08-04T02:22:32.310Z,82.20
2018-08-04T02:25:01.499Z,82.90
2018-08-04T02:27:30.830Z,83.35
2018-08-04T02:30:00.092Z,83.34
2018-08-04T02:32:29.372Z,83.21
2018-08-04T02:34:58.654Z,84.33
2018-08-04T02:37:27.856Z,84.17
2018-08-04T02:39:57.334Z,84.16
2018-08-04T02:42:26.603Z,85.05
2018-08-04T02:44:55.849Z,84.91
2018-08-04T02:47:25.339Z,84.63
2018-08-04T02:49:54.670Z,84.75
2018-08-04T02:52:24.181Z,85.48
2018-08-04T02:54:54.490Z,85.13
2018-08-04T02:57:23.799Z,85.50
2018-08-04T02:59:53.097Z,85.13
2018-08-04T03:02:23.525Z,85.82
2018-08-04T03:04:52.930Z,85.28
2018-08-04T03:07:22.700Z,85.75
2018-08-04T03:09:52.339Z,85.58
2018-08-04T03:12:21.750Z,85.49
2018-08-04T03:14:51.080Z,85.08
2018-08-04T03:17:22.417Z,85.91
2018-08-04T03:19:52.036Z,86.46
2018-08-04T03:22:21.470Z,86.55
2018-08-04T03:24:51.320Z,86.80
2018-08-04T03:27:20.799Z,87.00
2018-08-04T03:29:50.172Z,86.56
2018-08-04T03:32:19.729Z,86.41
2018-08-04T03:34:49.075Z,86.57
2018-08-04T03:37:18.625Z,86.93
2018-08-04T03:39:49.478Z,85.85
2018-08-04T03:42:18.900Z,85.65
2018-08-04T03:44:48.329Z,84.98
2018-08-04T03:47:17.745Z,85.10
2018-08-04T03:49:47.227Z,85.26
2018-08-04T03:52:16.705Z,85.43
2018-08-04T03:54:46.217Z,85.72
2018-08-04T03:57:15.637Z,85.35
2018-08-04T03:59:44.909Z,84.53
2018-08-04T04:02:14.342Z,83.66
2018-08-04T04:04:43.605Z,84.28
2018-08-04T04:07:12.922Z,84.62
2018-08-04T04:09:42.161Z,84.28
2018-08-04T04:12:11.392Z,84.69
2018-08-04T04:14:40.909Z,84.63
2018-08-04T04:17:10.157Z,84.71
2018-08-04T04:19:39.446Z,84.17
2018-08-04T04:22:08.923Z,83.83
2018-08-04T04:24:38.409Z,84.12
2018-08-04T04:27:08.001Z,85.12
2018-08-04T04:29:37.300Z,84.32
2018-08-04T04:32:07.004Z,84.21
2018-08-04T04:34:36.296Z,84.96
2018-08-04T04:37:05.550Z,84.23
2018-08-04T04:39:34.876Z,84.54
2018-08-04T04:42:04.198Z,83.44
2018-08-04T04:44:33.817Z,83.60
2018-08-04T04:47:03.202Z,83.34
2018-08-04T04:49:32.398Z,83.58
2018-08-04T04:52:01.745Z,82.56
2018-08-04T04:54:31.085Z,82.12
2018-08-04T04:57:00.276Z,81.75
2018-08-04T04:59:29.598Z,82.53
2018-08-04T05:01:59.186Z,82.28
2018-08-04T05:04:28.529Z,82.51
2018-08-04T05:06:57.710Z,81.50
2018-08-04T05:09:27.552Z,81.66
2018-08-04T05:11:56.858Z,81.37
2018-08-04T05:14:26.106Z,81.25
2018-08-04T05:16:55.454Z,82.46
2018-08-04T05:19:24.803Z,81.85
2018-08-04T05:21:54.126Z,82.21
2018-08-04T05:24:23.813Z,81.70
2018-08-04T05:26:53.269Z,81.46
2018-08-04T05:29:22.616Z,81.13
2018-08-04T05:31:52.051Z,80.50
2018-08-04T05:34:21.388Z,80.25
2018-08-04T05:36:50.789Z,82.43
2018-08-04T05:39:20.253Z,81.67
2018-08-04T05:41:49.605Z,81.55
2018-08-04T05:44:19.009Z,84.15
2018-08-04T05:46:48.924Z,85.03
2018-08-04T05:49:18.236Z,84.76
2018-08-04T05:51:47.844Z,84.48
2018-08-04T05:54:17.425Z,85.11
2018-08-04T05:56:46.725Z,84.84
2018-08-04T05:59:16.074Z,84.78
2018-08-04T06:01:46.243Z,84.42
2018-08-04T06:04:15.569Z,84.46
2018-08-04T06:06:44.782Z,86.28
2018-08-04T06:09:14.018Z,85.80
2018-08-04T06:11:43.274Z,85.82
2018-08-04T06:14:13.094Z,85.65
2018-08-04T06:16:42.373Z,85.51
2018-08-04T06:19:11.649Z,85.22
2018-08-04T06:21:40.826Z,85.54
2018-08-04T06:24:10.104Z,85.49
2018-08-04T06:26:39.435Z,84.14
2018-08-04T06:29:08.715Z,83.86
2018-08-04T06:31:37.948Z,82.94
2018-08-04T06:34:07.324Z,82.89
2018-08-04T06:36:36.677Z,81.83
2018-08-04T06:39:07.560Z,81.11
2018-08-04T06:41:37.237Z,80.77
2018-08-04T06:44:06.525Z,80.96
2018-08-04T06:46:35.784Z,80.65
2018-08-04T06:49:05.592Z,80.89
2018-08-04T06:51:34.822Z,79.50
2018-08-04T06:54:04.506Z,79.85
2018-08-04T06:56:33.777Z,78.92
2018-08-04T06:59:03.085Z,79.05
2018-08-04T07:01:32.660Z,77.59
2018-08-04T07:04:01.849Z,76.32
2018-08-04T07:06:31.156Z,76.79
2018-08-04T07:09:01.234Z,78.85
2018-08-04T07:11:30.776Z,77.89
2018-08-04T07:14:00.097Z,75.99
2018-08-04T07:16:29.443Z,77.37
2018-08-04T07:18:59.373Z,76.68
2018-08-04T07:21:28.658Z,76.03
2018-08-04T07:23:58.515Z,74.45
2018-08-04T07:26:27.789Z,73.44
2018-08-04T07:28:57.286Z,73.60
2018-08-04T07:31:27.365Z,72.69
2018-08-04T07:33:56.798Z,74.82
2018-08-04T07:36:27.076Z,75.36
2018-08-04T07:38:57.491Z,76.48
2018-08-04T07:41:26.804Z,75.56
2018-08-04T07:43:56.633Z,76.25
2018-08-04T07:46:26.282Z,73.82
2018-08-04T07:48:55.677Z,74.40
2018-08-04T07:51:25.114Z,74.88
2018-08-04T07:53:54.739Z,74.38
2018-08-04T07:56:24.228Z,73.37
2018-08-04T07:58:54.616Z,70.78
2018-08-04T08:01:24.067Z,69.71
2018-08-04T08:03:53.597Z,68.23
2018-08-04T08:06:22.987Z,67.45
2018-08-04T08:08:52.370Z,68.13
2018-08-04T08:11:22.339Z,69.33
2018-08-04T08:13:51.928Z,66.04
2018-08-04T08:16:21.918Z,65.29
2018-08-04T08:18:51.259Z,64.41
2018-08-04T08:21:20.648Z,64.34
2018-08-04T08:23:50.201Z,64.48
2018-08-04T08:26:19.771Z,64.52
2018-08-04T08:28:50.605Z,64.47
2018-08-04T08:31:20.241Z,63.92
2018-08-04T08:33:50.773Z,63.85
2018-08-04T08:36:20.501Z,64.10
2018-08-04T08:38:50.857Z,62.85
2018-08-04T08:41:20.391Z,63.76
2018-08-04T08:43:50.074Z,64.50
2018-08-04T08:46:19.522Z,66.07
2018-08-04T08:48:49.005Z,64.38
2018-08-04T08:51:18.413Z,63.09
2018-08-04T08:53:49.097Z,61.77
2018-08-04T08:56:18.639Z,61.47
2018-08-04T08:58:48.084Z,61.06
2018-08-04T09:01:18.968Z,60.61
2018-08-04T09:03:48.377Z,60.56
2018-08-04T09:06:19.556Z,61.09
2018-08-04T09:08:49.295Z,59.71
2018-08-04T09:11:19.113Z,58.86
2018-08-04T09:13:48.739Z,58.38
2018-08-04T09:16:19.085Z,56.76
2018-08-04T09:18:49.205Z,55.50
2018-08-04T09:21:20.107Z,56.05
2018-08-04T09:23:50.674Z,56.46
2018-08-04T09:26:23.622Z,56.20
2018-08-04T09:28:58.815Z,55.01
2018-08-04T09:31:35.744Z,53.88
2018-08-04T09:34:05.370Z,54.21
2018-08-04T09:36:35.173Z,54.05
2018-08-04T09:39:09.520Z,50.41
2018-08-04T09:41:39.849Z,50.79
2018-08-04T09:44:09.859Z,52.36
2018-08-04T09:46:41.283Z,50.97
2018-08-04T09:49:16.631Z,48.80
2018-08-04T09:51:46.392Z,45.17
2018-08-04T09:54:15.707Z,44.88
2018-08-04T09:56:44.917Z,42.67
2018-08-04T09:59:14.249Z,44.73
2018-08-04T10:01:43.438Z,43.74
2018-08-04T10:04:12.782Z,42.10
2018-08-04T10:06:42.137Z,43.89
2018-08-04T10:09:15.533Z,47.76
2018-08-04T10:11:45.594Z,50.49
2018-08-04T10:14:15.129Z,47.02
2018-08-04T10:16:44.854Z,46.40
2018-08-04T10:19:15.099Z,45.83
2018-08-04T10:21:44.507Z,41.81
2018-08-04T10:24:14.728Z,45.11
2018-08-04T10:26:44.230Z,46.95
2018-08-04T10:29:13.613Z,42.93
2018-08-04T10:31:43.513Z,43.35
2018-08-04T10:34:14.134Z,40.92
2018-08-04T10:36:43.940Z,39.26
2018-08-04T10:39:13.825Z,41.18
2018-08-04T10:41:43.359Z,42.50
2018-08-04T10:44:12.598Z,43.23
2018-08-04T10:46:41.877Z,44.50
2018-08-04T10:49:11.789Z,45.15
2018-08-04T10:51:41.068Z,46.73
2018-08-04T10:54:10.345Z,42.81
2018-08-04T10:56:39.639Z,41.45
2018-08-04T10:59:08.929Z,40.72
2018-08-04T11:01:39.666Z,38.31
2018-08-04T11:04:09.764Z,40.32
2018-08-04T11:06:39.361Z,40.77
2018-08-04T11:09:09.884Z,37.64
2018-08-04T11:11:40.308Z,46.31
2018-08-04T11:14:09.706Z,44.32
2018-08-04T11:16:39.298Z,47.92
2018-08-04T11:19:08.739Z,53.25
2018-08-04T11:21:38.099Z,52.43
2018-08-04T11:24:07.451Z,51.76
2018-08-04T11:26:36.649Z,47.90
2018-08-04T11:29:06.103Z,47.40
2018-08-04T11:31:35.410Z,47.33
2018-08-04T11:34:04.749Z,47.00
2018-08-04T11:36:34.516Z,49.38
2018-08-04T11:39:06.141Z,46.76
2018-08-04T11:41:35.581Z,44.15
2018-08-04T11:44:05.231Z,45.00
2018-08-04T11:46:35.312Z,45.14
2018-08-04T11:49:04.592Z,42.79
2018-08-04T11:51:34.036Z,42.24
2018-08-04T11:54:04.288Z,46.02
2018-08-04T11:56:33.537Z,47.45
2018-08-04T11:59:02.757Z,48.34
2018-08-04T12:01:32.528Z,46.70
2018-08-04T12:04:02.052Z,47.99
2018-08-04T12:06:31.268Z,47.96
2018-08-04T12:09:00.875Z,48.22
2018-08-04T12:11:30.209Z,47.93
2018-08-04T12:13:59.492Z,50.63
2018-08-04T12:16:29.421Z,49.21
2018-08-04T12:18:58.896Z,48.35
2018-08-04T12:21:30.908Z,46.92
2018-08-04T12:24:03.026Z,49.36
2018-08-04T12:26:32.270Z,49.04
2018-08-04T12:29:01.841Z,49.50
2018-08-04T12:31:34.119Z,50.27
2018-08-04T12:34:03.445Z,54.00
2018-08-04T12:36:34.334Z,56.42
2018-08-04T12:39:03.941Z,57.66
2018-08-04T12:41:33.176Z,58.93
2018-08-04T12:44:05.270Z,58.80
2018-08-04T12:46:35.437Z,58.70
2018-08-04T12:49:04.844Z,56.34
2018-08-04T12:51:34.977Z,57.07
2018-08-04T12:54:04.407Z,55.54
2018-08-04T12:56:35.153Z,53.77
2018-08-04T12:59:05.206Z,54.42
2018-08-04T13:01:34.669Z,53.05
2018-08-04T13:04:04.140Z,50.89
2018-08-04T13:06:34.174Z,48.18
2018-08-04T13:09:03.501Z,48.81
2018-08-04T13:11:34.165Z,50.73
2018-08-04T13:14:03.562Z,51.75
2018-08-04T13:16:32.786Z,52.17
2018-08-04T13:19:02.105Z,50.29
2018-08-04T13:21:31.832Z,52.57
2018-08-04T13:24:01.413Z,51.98
2018-08-04T13:26:31.365Z,52.52
2018-08-04T13:29:00.869Z,52.08
2018-08-04T13:31:30.052Z,51.81
2018-08-04T13:34:01.101Z,53.71
2018-08-04T13:36:30.493Z,52.70
2018-08-04T13:38:59.718Z,54.55
2018-08-04T13:41:29.043Z,55.58
2018-08-04T13:43:58.633Z,56.38
2018-08-04T13:46:28.457Z,59.18
2018-08-04T13:48:57.761Z,58.73
2018-08-04T13:51:28.685Z,58.32
2018-08-04T13:53:58.229Z,58.61
2018-08-04T13:56:28.169Z,54.21
2018-08-04T13:58:57.670Z,53.08
2018-08-04T14:01:27.209Z,53.88
2018-08-04T14:03:57.001Z,53.62
2018-08-04T14:06:26.270Z,53.20
2018-08-04T14:08:55.567Z,52.17
2018-08-04T14:11:24.846Z,52.23
2018-08-04T14:13:54.939Z,52.27
2018-08-04T14:16:24.615Z,52.94
2018-08-04T14:18:54.009Z,53.89
2018-08-04T14:21:23.660Z,54.61
2018-08-04T14:23:53.605Z,52.99
2018-08-04T14:26:23.442Z,48.64
2018-08-04T14:28:53.489Z,48.29
2018-08-04T14:31:23.378Z,47.05
2018-08-04T14:33:52.963Z,46.81
2018-08-04T14:36:22.332Z,47.01
2018-08-04T14:38:51.903Z,46.92
2018-08-04T14:41:21.519Z,46.29
2018-08-04T14:43:52.101Z,46.82
2018-08-04T14:46:26.494Z,45.79
2018-08-04T14:48:56.586Z,46.03
2018-08-04T14:51:28.150Z,45.70
2018-08-04T14:53:57.578Z,44.59
2018-08-04T14:56:27.392Z,45.82
2018-08-04T14:58:56.730Z,44.88
2018-08-04T15:01:26.143Z,43.98
2018-08-04T15:05:24.676Z,44.25
2018-08-04T15:07:54.516Z,43.63
2018-08-04T15:10:23.946Z,43.74
2018-08-04T15:12:53.506Z,44.32
2018-08-04T15:15:23.231Z,44.72
2018-08-04T15:17:52.720Z,44.78
2018-08-04T15:20:22.342Z,44.86
2018-08-04T15:22:52.038Z,44.88
2018-08-04T15:25:21.794Z,46.44
2018-08-04T15:27:51.393Z,45.88
2018-08-04T15:30:21.009Z,46.71
2018-08-04T15:32:50.557Z,45.56
2018-08-04T15:35:19.992Z,46.10
2018-08-04T15:37:50.899Z,46.37
2018-08-04T15:40:20.391Z,47.41
2018-08-04T15:42:50.002Z,46.54
2018-08-04T15:45:21.556Z,47.20
2018-08-04T15:47:51.316Z,47.20
2018-08-04T15:50:20.865Z,46.50
2018-08-04T15:52:50.561Z,46.60
2018-08-04T15:55:20.263Z,48.06
2018-08-04T15:57:49.949Z,47.84
2018-08-04T16:00:19.727Z,49.16
2018-08-04T16:02:49.863Z,49.95
2018-08-04T16:05:19.784Z,49.55
2018-08-04T16:07:49.290Z,49.13
2018-08-04T16:10:18.901Z,48.35
2018-08-04T16:12:48.687Z,48.53
2018-08-04T16:15:18.659Z,49.60
2018-08-04T16:17:48.275Z,49.78
2018-08-04T16:20:19.414Z,49.40
2018-08-04T16:22:49.174Z,50.97
2018-08-04T16:25:19.899Z,51.42
2018-08-04T16:27:49.815Z,51.28
2018-08-04T16:30:20.215Z,51.97
2018-08-04T16:32:49.808Z,52.03
2018-08-04T16:35:19.727Z,53.05
2018-08-04T16:37:49.678Z,54.49
2018-08-04T16:40:19.317Z,54.46
2018-08-04T16:42:50.817Z,55.04
2018-08-04T16:45:21.536Z,54.59
2018-08-04T16:47:51.856Z,53.36
2018-08-04T16:50:21.579Z,53.65
2018-08-04T16:52:51.536Z,52.99
2018-08-04T16:55:22.151Z,52.53
2018-08-04T16:57:51.815Z,53.03
2018-08-04T17:00:21.496Z,54.03
2018-08-04T17:02:51.302Z,54.03
2018-08-04T17:05:20.821Z,53.83
2018-08-04T17:07:50.751Z,54.84
2018-08-04T17:10:20.415Z,54.64
2018-08-04T17:12:50.503Z,55.04
2018-08-04T17:15:20.714Z,55.29
2018-08-04T17:17:50.680Z,55.07
2018-08-04T17:20:21.639Z,55.34
2018-08-04T17:22:52.149Z,55.35
2018-08-04T17:25:21.752Z,55.65
2018-08-04T17:27:51.204Z,56.17
2018-08-04T17:30:21.065Z,56.11
2018-08-04T17:32:52.061Z,56.49
2018-08-04T17:35:21.957Z,56.84
2018-08-04T17:37:52.165Z,57.21
2018-08-04T17:40:21.684Z,57.11
2018-08-04T17:42:51.318Z,56.81
2018-08-04T17:45:20.786Z,56.93
2018-08-04T17:47:50.280Z,57.37
2018-08-04T17:50:20.016Z,57.48
2018-08-04T17:52:49.641Z,58.59
2018-08-04T17:55:19.625Z,58.45
2018-08-04T17:57:49.108Z,58.10
2018-08-04T18:00:18.543Z,57.95
2018-08-04T18:02:48.207Z,58.09
2018-08-04T18:05:17.710Z,58.97
2018-08-04T18:07:47.183Z,59.58
2018-08-04T18:10:16.722Z,59.20
2018-08-04T18:12:46.301Z,59.52
2018-08-04T18:15:16.065Z,60.29
2018-08-04T18:17:46.391Z,60.98
2018-08-04T18:20:16.524Z,61.14
2018-08-04T18:22:45.920Z,61.73
2018-08-04T18:25:16.505Z,63.05
2018-08-04T18:27:46.214Z,63.15
2018-08-04T18:30:15.734Z,62.81
2018-08-04T18:32:45.070Z,61.90
2018-08-04T18:35:14.620Z,62.47
2018-08-04T18:37:44.479Z,62.80
2018-08-04T18:40:13.786Z,63.47
2018-08-04T18:42:43.116Z,63.31
2018-08-04T18:45:12.350Z,62.38
2018-08-04T18:47:42.188Z,63.21
2018-08-04T18:50:11.538Z,63.53
2018-08-04T18:52:40.921Z,62.82
2018-08-04T18:55:10.560Z,63.01
2018-08-04T18:57:39.823Z,63.46
2018-08-04T19:00:10.347Z,64.30
2018-08-04T19:02:40.949Z,64.31
2018-08-04T19:05:11.637Z,64.70
2018-08-04T19:07:41.028Z,65.41
2018-08-04T19:10:10.494Z,66.73
2018-08-04T19:12:39.845Z,65.91
2018-08-04T19:15:09.763Z,66.35
2018-08-04T19:17:39.092Z,67.07
2018-08-04T19:20:08.690Z,66.46
2018-08-04T19:22:38.204Z,67.78
2018-08-04T19:25:08.015Z,67.84
2018-08-04T19:27:37.369Z,67.76
2018-08-04T19:30:07.594Z,68.59
2018-08-04T19:32:36.818Z,67.82
2018-08-04T19:35:06.210Z,68.55
2018-08-04T19:37:35.593Z,68.01
2018-08-04T19:40:05.666Z,68.80
2018-08-04T19:42:35.000Z,68.88
2018-08-04T19:45:04.657Z,68.86
2018-08-04T19:47:33.989Z,69.95
2018-08-04T19:50:03.358Z,69.38
2018-08-04T19:52:32.858Z,70.09
2018-08-04T19:55:02.188Z,69.25
2018-08-04T19:57:31.482Z,69.99
2018-08-04T20:00:02.691Z,70.23
2018-08-04T20:02:31.889Z,69.87
2018-08-04T20:05:01.123Z,70.71
2018-08-04T20:07:30.375Z,70.30
2018-08-04T20:09:59.667Z,70.45
2018-08-04T20:12:28.889Z,70.80
2018-08-04T20:14:58.166Z,70.88
2018-08-04T20:17:28.007Z,71.14
2018-08-04T20:19:57.729Z,70.82
2018-08-04T20:22:27.418Z,70.77
2018-08-04T20:24:56.958Z,71.88
2018-08-04T20:27:27.038Z,71.34
2018-08-04T20:29:57.376Z,71.66
2018-08-04T20:32:26.897Z,72.38
2018-08-04T20:34:56.418Z,72.18
2018-08-04T20:37:26.306Z,73.22
2018-08-04T20:39:55.742Z,73.51
2018-08-04T20:44:54.120Z,73.64
2018-08-04T20:47:23.516Z,74.00
2018-08-04T20:49:53.308Z,75.29
2018-08-04T20:52:24.477Z,75.52
2018-08-04T20:54:55.552Z,74.93
2018-08-04T20:57:24.985Z,75.87
2018-08-04T20:59:57.994Z,75.64
2018-08-04T21:02:27.426Z,75.84
2018-08-04T21:04:57.456Z,76.42
2018-08-04T21:07:27.553Z,75.89
2018-08-04T21:09:56.935Z,76.67
2018-08-04T21:12:26.388Z,76.39
2018-08-04T21:14:55.861Z,76.60
2018-08-04T21:17:25.307Z,76.65
2018-08-04T21:19:55.575Z,76.86
2018-08-04T21:22:26.217Z,77.46
2018-08-04T21:24:55.974Z,77.56
2018-08-04T21:27:25.852Z,76.97
2018-08-04T21:29:55.511Z,77.58
2018-08-04T21:32:25.179Z,77.15
2018-08-04T21:34:56.974Z,77.77
2018-08-04T21:37:27.103Z,77.46
2018-08-04T21:39:56.583Z,78.38
2018-08-04T21:42:26.552Z,77.71
2018-08-04T21:44:56.190Z,78.41
2018-08-04T21:47:25.846Z,78.62
2018-08-04T21:49:57.671Z,78.75
2018-08-04T21:52:28.373Z,78.70
2018-08-04T21:54:57.655Z,78.28
2018-08-04T21:57:28.630Z,78.59
2018-08-04T21:59:58.061Z,78.57
2018-08-04T22:02:27.367Z,78.70
2018-08-04T22:04:58.382Z,79.51
2018-08-04T22:07:40.922Z,80.48
2018-08-04T22:10:12.525Z,80.09
2018-08-04T22:12:42.848Z,80.46
2018-08-04T22:15:13.756Z,81.00
2018-08-04T22:17:43.018Z,81.20
2018-08-04T22:20:15.184Z,80.44
2018-08-04T22:22:48.461Z,80.12
2018-08-04T22:25:22.256Z,80.92
2018-08-04T22:27:53.066Z,80.79
2018-08-04T22:30:24.130Z,80.65
2018-08-04T22:32:54.374Z,81.48
2018-08-04T22:35:26.991Z,81.70
2018-08-04T22:37:56.460Z,81.23
2018-08-04T22:40:25.989Z,80.94
2018-08-04T22:42:55.428Z,80.52
2018-08-04T22:45:30.232Z,80.76
2018-08-04T22:48:00.252Z,80.94
2018-08-04T22:50:29.665Z,80.20
2018-08-04T22:52:59.019Z,80.29
2018-08-04T22:55:28.618Z,80.24
2018-08-04T22:57:59.662Z,80.88
2018-08-04T23:00:29.468Z,80.58
2018-08-04T23:02:59.764Z,81.00
2018-08-04T23:05:29.466Z,80.91
2018-08-04T23:07:58.889Z,81.15
2018-08-04T23:10:28.259Z,80.75
2018-08-04T23:12:58.183Z,81.31
2018-08-04T23:15:28.381Z,81.63
2018-08-04T23:17:57.766Z,81.83
2018-08-04T23:20:27.405Z,81.46
2018-08-04T23:22:58.383Z,82.57
2018-08-04T23:25:27.725Z,83.14
2018-08-04T23:27:57.411Z,82.37
2018-08-04T23:30:27.077Z,82.61
2018-08-04T23:32:56.566Z,82.62
2018-08-04T23:35:27.138Z,82.60
2018-08-04T23:37:58.642Z,82.30
2018-08-04T23:40:29.516Z,81.32
2018-08-04T23:43:00.385Z,81.59
2018-08-04T23:45:29.746Z,81.28
2018-08-04T23:47:58.990Z,80.93
2018-08-04T23:50:28.877Z,81.49
2018-08-04T23:52:58.098Z,81.33
2018-08-04T23:55:27.953Z,81.33
2018-08-04T23:57:57.240Z,80.97
